sensor_id;sensor_type;location;lat;lon;timestamp;P1;durP1;ratioP1;P2;durP2;ratioP2
7729;SDS011;3908;52.310;7.230;2023-07-13T00:01:32;110.33;;;104.77;;
7729;SDS011;3908;52.310;7.230;2023-07-13T00:04:20;123.03;;;116.80;;
7729;SDS011;3908;52.310;7.230;2023-07-13T00:07:08;112.07;;;106.23;;
7729;SDS011;3908;52.310;7.230;2023-07-13T00:09:55;109.47;;;104.07;;
7729;SDS011;3908;52.310;7.230;2023-07-13T00:12:42;121.03;;;115.23;;
7729;SDS011;3908;52.310;7.230;2023-07-13T00:15:29;105.77;;;99.90;;
7729;SDS011;3908;52.310;7.230;2023-07-13T00:18:18;83.23;;;78.10;;
7729;SDS011;3908;52.310;7.230;2023-07-13T00:21:05;76.27;;;72.23;;
7729;SDS011;3908;52.310;7.230;2023-07-13T00:23:52;75.00;;;70.57;;
7729;SDS011;3908;52.310;7.230;2023-07-13T00:26:39;71.63;;;67.83;;
7729;SDS011;3908;52.310;7.230;2023-07-13T00:29:25;88.20;;;83.40;;
7729;SDS011;3908;52.310;7.230;2023-07-13T00:32:12;89.57;;;84.70;;
7729;SDS011;3908;52.310;7.230;2023-07-13T00:35:00;133.27;;;126.03;;
7729;SDS011;3908;52.310;7.230;2023-07-13T00:37:48;161.53;;;153.37;;
7729;SDS011;3908;52.310;7.230;2023-07-13T00:40:35;179.40;;;170.27;;
7729;SDS011;3908;52.310;7.230;2023-07-13T00:43:23;178.10;;;169.67;;
7729;SDS011;3908;52.310;7.230;2023-07-13T00:46:17;195.17;;;185.77;;
7729;SDS011;3908;52.310;7.230;2023-07-13T00:49:05;171.40;;;163.23;;
7729;SDS011;3908;52.310;7.230;2023-07-13T00:51:55;173.57;;;165.60;;
7729;SDS011;3908;52.310;7.230;2023-07-13T00:54:43;126.93;;;120.73;;
7729;SDS011;3908;52.310;7.230;2023-07-13T00:57:31;118.37;;;113.00;;
7729;SDS011;3908;52.310;7.230;2023-07-13T01:00:18;119.30;;;113.47;;
7729;SDS011;3908;52.310;7.230;2023-07-13T01:03:07;105.73;;;100.73;;
7729;SDS011;3908;52.310;7.230;2023-07-13T01:05:55;97.80;;;93.17;;
7729;SDS011;3908;52.310;7.230;2023-07-13T01:08:43;84.27;;;80.00;;
7729;SDS011;3908;52.310;7.230;2023-07-13T01:11:30;75.93;;;72.30;;
7729;SDS011;3908;52.310;7.230;2023-07-13T01:14:17;71.97;;;68.17;;
7729;SDS011;3908;52.310;7.230;2023-07-13T01:17:04;69.60;;;65.83;;
7729;SDS011;3908;52.310;7.230;2023-07-13T01:19:51;63.17;;;59.80;;
7729;SDS011;3908;52.310;7.230;2023-07-13T01:22:39;54.30;;;51.30;;
7729;SDS011;3908;52.310;7.230;2023-07-13T01:25:26;60.93;;;57.00;;
7729;SDS011;3908;52.310;7.230;2023-07-13T01:28:13;43.00;;;40.37;;
7729;SDS011;3908;52.310;7.230;2023-07-13T01:31:02;39.70;;;37.67;;
7729;SDS011;3908;52.310;7.230;2023-07-13T01:33:49;34.17;;;32.37;;
7729;SDS011;3908;52.310;7.230;2023-07-13T01:36:36;34.87;;;32.53;;
7729;SDS011;3908;52.310;7.230;2023-07-13T01:39:24;35.70;;;33.53;;
7729;SDS011;3908;52.310;7.230;2023-07-13T01:42:11;38.33;;;36.13;;
7729;SDS011;3908;52.310;7.230;2023-07-13T01:44:57;34.33;;;32.57;;
7729;SDS011;3908;52.310;7.230;2023-07-13T01:47:44;32.00;;;29.90;;
7729;SDS011;3908;52.310;7.230;2023-07-13T01:50:31;27.50;;;25.83;;
7729;SDS011;3908;52.310;7.230;2023-07-13T01:53:18;31.03;;;28.97;;
7729;SDS011;3908;52.310;7.230;2023-07-13T01:56:06;39.47;;;37.07;;
7729;SDS011;3908;52.310;7.230;2023-07-13T01:58:53;44.37;;;41.33;;
7729;SDS011;3908;52.310;7.230;2023-07-13T02:01:39;57.93;;;54.50;;
7729;SDS011;3908;52.310;7.230;2023-07-13T02:04:26;57.70;;;54.63;;
7729;SDS011;3908;52.310;7.230;2023-07-13T02:07:13;76.77;;;72.83;;
7729;SDS011;3908;52.310;7.230;2023-07-13T02:10:00;94.20;;;89.13;;
7729;SDS011;3908;52.310;7.230;2023-07-13T02:12:49;85.77;;;81.10;;
7729;SDS011;3908;52.310;7.230;2023-07-13T02:15:38;97.87;;;92.87;;
7729;SDS011;3908;52.310;7.230;2023-07-13T02:18:25;102.17;;;96.63;;
7729;SDS011;3908;52.310;7.230;2023-07-13T02:21:12;111.30;;;105.57;;
7729;SDS011;3908;52.310;7.230;2023-07-13T02:23:58;124.30;;;118.17;;
7729;SDS011;3908;52.310;7.230;2023-07-13T02:26:45;132.50;;;125.70;;
7729;SDS011;3908;52.310;7.230;2023-07-13T02:29:33;142.20;;;134.63;;
7729;SDS011;3908;52.310;7.230;2023-07-13T02:32:20;162.07;;;153.67;;
7729;SDS011;3908;52.310;7.230;2023-07-13T02:35:07;172.20;;;162.90;;
7729;SDS011;3908;52.310;7.230;2023-07-13T02:37:54;187.90;;;178.10;;
7729;SDS011;3908;52.310;7.230;2023-07-13T02:40:40;182.73;;;173.07;;
7729;SDS011;3908;52.310;7.230;2023-07-13T02:43:27;193.57;;;183.23;;
7729;SDS011;3908;52.310;7.230;2023-07-13T02:46:16;202.63;;;192.33;;
7729;SDS011;3908;52.310;7.230;2023-07-13T02:49:05;214.27;;;202.67;;
7729;SDS011;3908;52.310;7.230;2023-07-13T02:51:51;210.30;;;198.90;;
7729;SDS011;3908;52.310;7.230;2023-07-13T02:54:38;205.40;;;194.60;;
7729;SDS011;3908;52.310;7.230;2023-07-13T02:57:25;207.50;;;196.13;;
7729;SDS011;3908;52.310;7.230;2023-07-13T03:00:12;224.27;;;211.80;;
7729;SDS011;3908;52.310;7.230;2023-07-13T03:03:03;229.47;;;216.33;;
7729;SDS011;3908;52.310;7.230;2023-07-13T03:05:57;230.20;;;217.23;;
7729;SDS011;3908;52.310;7.230;2023-07-13T03:08:45;221.17;;;209.30;;
7729;SDS011;3908;52.310;7.230;2023-07-13T03:11:31;210.27;;;199.00;;
7729;SDS011;3908;52.310;7.230;2023-07-13T03:14:18;164.83;;;155.93;;
7729;SDS011;3908;52.310;7.230;2023-07-13T03:17:05;176.50;;;167.23;;
7729;SDS011;3908;52.310;7.230;2023-07-13T03:19:53;161.30;;;153.20;;
7729;SDS011;3908;52.310;7.230;2023-07-13T03:22:40;123.97;;;118.00;;
7729;SDS011;3908;52.310;7.230;2023-07-13T03:25:27;134.83;;;128.23;;
7729;SDS011;3908;52.310;7.230;2023-07-13T03:28:14;132.87;;;126.53;;
7729;SDS011;3908;52.310;7.230;2023-07-13T03:31:02;100.57;;;95.50;;
7729;SDS011;3908;52.310;7.230;2023-07-13T03:33:49;119.67;;;114.03;;
7729;SDS011;3908;52.310;7.230;2023-07-13T03:36:37;109.33;;;104.10;;
7729;SDS011;3908;52.310;7.230;2023-07-13T03:39:24;82.37;;;78.37;;
7729;SDS011;3908;52.310;7.230;2023-07-13T03:42:11;95.43;;;90.93;;
7729;SDS011;3908;52.310;7.230;2023-07-13T03:44:58;83.43;;;78.67;;
7729;SDS011;3908;52.310;7.230;2023-07-13T03:47:44;66.87;;;62.10;;
7729;SDS011;3908;52.310;7.230;2023-07-13T03:50:31;72.03;;;68.33;;
7729;SDS011;3908;52.310;7.230;2023-07-13T03:53:20;73.93;;;69.80;;
7729;SDS011;3908;52.310;7.230;2023-07-13T03:56:07;70.90;;;67.17;;
7729;SDS011;3908;52.310;7.230;2023-07-13T03:58:54;64.40;;;61.10;;
7729;SDS011;3908;52.310;7.230;2023-07-13T04:01:41;86.87;;;82.70;;
7729;SDS011;3908;52.310;7.230;2023-07-13T04:04:28;121.27;;;114.77;;
7729;SDS011;3908;52.310;7.230;2023-07-13T04:07:16;138.20;;;130.67;;
7729;SDS011;3908;52.310;7.230;2023-07-13T04:10:05;126.20;;;118.93;;
7729;SDS011;3908;52.310;7.230;2023-07-13T04:12:52;98.27;;;93.37;;
7729;SDS011;3908;52.310;7.230;2023-07-13T04:15:39;95.30;;;90.27;;
7729;SDS011;3908;52.310;7.230;2023-07-13T04:18:26;127.50;;;120.67;;
7729;SDS011;3908;52.310;7.230;2023-07-13T04:21:13;131.13;;;123.93;;
7729;SDS011;3908;52.310;7.230;2023-07-13T04:24:00;114.07;;;108.27;;
7729;SDS011;3908;52.310;7.230;2023-07-13T04:26:49;108.40;;;102.40;;
7729;SDS011;3908;52.310;7.230;2023-07-13T04:29:36;88.90;;;84.27;;
7729;SDS011;3908;52.310;7.230;2023-07-13T04:32:23;82.07;;;77.43;;
7729;SDS011;3908;52.310;7.230;2023-07-13T04:35:09;74.23;;;70.43;;
7729;SDS011;3908;52.310;7.230;2023-07-13T04:37:56;70.90;;;66.87;;
7729;SDS011;3908;52.310;7.230;2023-07-13T04:40:44;151.23;;;143.37;;
7729;SDS011;3908;52.310;7.230;2023-07-13T04:43:33;168.33;;;159.33;;
7729;SDS011;3908;52.310;7.230;2023-07-13T04:46:20;160.50;;;151.57;;
7729;SDS011;3908;52.310;7.230;2023-07-13T04:49:06;141.83;;;134.13;;
7729;SDS011;3908;52.310;7.230;2023-07-13T04:51:54;123.40;;;116.77;;
7729;SDS011;3908;52.310;7.230;2023-07-13T04:54:41;127.07;;;120.60;;
7729;SDS011;3908;52.310;7.230;2023-07-13T04:57:28;130.30;;;123.47;;
7729;SDS011;3908;52.310;7.230;2023-07-13T05:00:16;139.83;;;132.97;;
7729;SDS011;3908;52.310;7.230;2023-07-13T05:03:03;111.30;;;105.27;;
7729;SDS011;3908;52.310;7.230;2023-07-13T05:05:56;89.93;;;84.70;;
7729;SDS011;3908;52.310;7.230;2023-07-13T05:08:43;81.30;;;76.83;;
7729;SDS011;3908;52.310;7.230;2023-07-13T05:11:30;197.17;;;187.37;;
7729;SDS011;3908;52.310;7.230;2023-07-13T05:14:16;219.50;;;208.80;;
7729;SDS011;3908;52.310;7.230;2023-07-13T05:17:05;244.67;;;233.10;;
7729;SDS011;3908;52.310;7.230;2023-07-13T05:19:51;255.73;;;242.37;;
7729;SDS011;3908;52.310;7.230;2023-07-13T05:22:38;252.47;;;238.43;;
7729;SDS011;3908;52.310;7.230;2023-07-13T05:25:25;150.93;;;142.80;;
7729;SDS011;3908;52.310;7.230;2023-07-13T05:28:12;150.97;;;142.07;;
7729;SDS011;3908;52.310;7.230;2023-07-13T05:30:59;244.73;;;230.60;;
7729;SDS011;3908;52.310;7.230;2023-07-13T05:33:47;234.20;;;220.90;;
7729;SDS011;3908;52.310;7.230;2023-07-13T05:36:33;274.03;;;257.90;;
7729;SDS011;3908;52.310;7.230;2023-07-13T05:39:20;402.37;;;377.20;;
7729;SDS011;3908;52.310;7.230;2023-07-13T05:42:07;415.67;;;389.63;;
7729;SDS011;3908;52.310;7.230;2023-07-13T05:44:54;437.70;;;410.57;;
7729;SDS011;3908;52.310;7.230;2023-07-13T05:47:41;404.50;;;380.17;;
7729;SDS011;3908;52.310;7.230;2023-07-13T05:50:29;395.57;;;371.90;;
7729;SDS011;3908;52.310;7.230;2023-07-13T05:53:16;260.27;;;242.65;;
7729;SDS011;3908;52.310;7.230;2023-07-13T05:56:03;242.57;;;225.88;;
7729;SDS011;3908;52.310;7.230;2023-07-13T05:58:49;399.33;;;372.33;;
7729;SDS011;3908;52.310;7.230;2023-07-13T06:01:36;308.60;;;287.90;;
7729;SDS011;3908;52.310;7.230;2023-07-13T06:04:23;312.58;;;294.02;;
7729;SDS011;3908;52.310;7.230;2023-07-13T06:07:11;436.90;;;410.83;;
7729;SDS011;3908;52.310;7.230;2023-07-13T06:09:58;418.17;;;394.45;;
7729;SDS011;3908;52.310;7.230;2023-07-13T06:12:45;276.40;;;262.50;;
7729;SDS011;3908;52.310;7.230;2023-07-13T06:15:32;270.08;;;257.13;;
7729;SDS011;3908;52.310;7.230;2023-07-13T06:18:19;307.80;;;292.17;;
7729;SDS011;3908;52.310;7.230;2023-07-13T06:21:06;330.52;;;313.00;;
7729;SDS011;3908;52.310;7.230;2023-07-13T06:23:55;310.13;;;294.48;;
7729;SDS011;3908;52.310;7.230;2023-07-13T06:26:42;301.58;;;286.23;;
7729;SDS011;3908;52.310;7.230;2023-07-13T06:29:28;390.15;;;368.38;;
7729;SDS011;3908;52.310;7.230;2023-07-13T06:32:15;227.95;;;215.57;;
7729;SDS011;3908;52.310;7.230;2023-07-13T06:35:02;193.18;;;182.32;;
7729;SDS011;3908;52.310;7.230;2023-07-13T06:37:49;161.57;;;152.55;;
7729;SDS011;3908;52.310;7.230;2023-07-13T06:40:37;99.72;;;94.75;;
7729;SDS011;3908;52.310;7.230;2023-07-13T06:43:24;81.75;;;77.32;;
7729;SDS011;3908;52.310;7.230;2023-07-13T06:46:11;116.15;;;110.00;;
7729;SDS011;3908;52.310;7.230;2023-07-13T06:48:58;77.57;;;73.20;;
7729;SDS011;3908;52.310;7.230;2023-07-13T06:51:44;88.63;;;84.28;;
7729;SDS011;3908;52.310;7.230;2023-07-13T06:54:31;91.47;;;86.78;;
7729;SDS011;3908;52.310;7.230;2023-07-13T06:57:19;92.72;;;87.03;;
7729;SDS011;3908;52.310;7.230;2023-07-13T07:00:07;80.75;;;76.38;;
7729;SDS011;3908;52.310;7.230;2023-07-13T07:02:55;76.05;;;71.70;;
7729;SDS011;3908;52.310;7.230;2023-07-13T07:05:42;81.95;;;77.95;;
7729;SDS011;3908;52.310;7.230;2023-07-13T07:08:28;87.15;;;82.63;;
7729;SDS011;3908;52.310;7.230;2023-07-13T07:11:16;74.60;;;70.45;;
7729;SDS011;3908;52.310;7.230;2023-07-13T07:14:05;114.35;;;108.15;;
7729;SDS011;3908;52.310;7.230;2023-07-13T07:16:51;112.15;;;106.55;;
7729;SDS011;3908;52.310;7.230;2023-07-13T07:19:38;92.57;;;87.80;;
7729;SDS011;3908;52.310;7.230;2023-07-13T07:22:26;116.00;;;109.78;;
7729;SDS011;3908;52.310;7.230;2023-07-13T07:25:13;116.78;;;110.72;;
7729;SDS011;3908;52.310;7.230;2023-07-13T07:27:59;143.25;;;136.10;;
7729;SDS011;3908;52.310;7.230;2023-07-13T07:30:48;173.32;;;164.40;;
7729;SDS011;3908;52.310;7.230;2023-07-13T07:33:35;93.50;;;88.60;;
7729;SDS011;3908;52.310;7.230;2023-07-13T07:36:21;101.10;;;96.10;;
7729;SDS011;3908;52.310;7.230;2023-07-13T07:39:08;115.07;;;108.95;;
7729;SDS011;3908;52.310;7.230;2023-07-13T07:41:55;127.70;;;120.60;;
7729;SDS011;3908;52.310;7.230;2023-07-13T07:44:42;201.43;;;189.32;;
7729;SDS011;3908;52.310;7.230;2023-07-13T07:47:30;163.10;;;152.15;;
7729;SDS011;3908;52.310;7.230;2023-07-13T07:50:17;157.05;;;147.27;;
7729;SDS011;3908;52.310;7.230;2023-07-13T07:53:05;148.57;;;140.13;;
7729;SDS011;3908;52.310;7.230;2023-07-13T07:55:55;115.13;;;108.60;;
7729;SDS011;3908;52.310;7.230;2023-07-13T07:58:42;142.50;;;134.45;;
7729;SDS011;3908;52.310;7.230;2023-07-13T08:01:29;81.95;;;76.80;;
7729;SDS011;3908;52.310;7.230;2023-07-13T08:04:18;140.82;;;133.05;;
7729;SDS011;3908;52.310;7.230;2023-07-13T08:07:05;143.65;;;136.20;;
7729;SDS011;3908;52.310;7.230;2023-07-13T08:09:52;119.30;;;112.25;;
7729;SDS011;3908;52.310;7.230;2023-07-13T08:12:39;168.88;;;159.40;;
7729;SDS011;3908;52.310;7.230;2023-07-13T08:15:26;195.88;;;184.68;;
7729;SDS011;3908;52.310;7.230;2023-07-13T08:18:12;135.55;;;128.63;;
7729;SDS011;3908;52.310;7.230;2023-07-13T08:21:04;108.53;;;102.97;;
7729;SDS011;3908;52.310;7.230;2023-07-13T08:23:51;140.20;;;132.93;;
7729;SDS011;3908;52.310;7.230;2023-07-13T08:26:37;87.07;;;82.80;;
7729;SDS011;3908;52.310;7.230;2023-07-13T08:29:24;95.53;;;90.22;;
7729;SDS011;3908;52.310;7.230;2023-07-13T08:32:11;53.88;;;50.15;;
7729;SDS011;3908;52.310;7.230;2023-07-13T08:34:58;98.53;;;93.30;;
7729;SDS011;3908;52.310;7.230;2023-07-13T08:37:46;106.40;;;101.05;;
7729;SDS011;3908;52.310;7.230;2023-07-13T08:40:33;74.15;;;69.80;;
7729;SDS011;3908;52.310;7.230;2023-07-13T08:43:20;116.45;;;110.57;;
7729;SDS011;3908;52.310;7.230;2023-07-13T08:46:10;126.10;;;119.85;;
7729;SDS011;3908;52.310;7.230;2023-07-13T08:48:58;130.63;;;124.03;;
7729;SDS011;3908;52.310;7.230;2023-07-13T08:51:47;137.27;;;130.73;;
7729;SDS011;3908;52.310;7.230;2023-07-13T08:54:37;117.40;;;111.80;;
7729;SDS011;3908;52.310;7.230;2023-07-13T08:57:26;48.72;;;45.50;;
7729;SDS011;3908;52.310;7.230;2023-07-13T09:00:15;53.60;;;50.17;;
7729;SDS011;3908;52.310;7.230;2023-07-13T09:03:02;57.90;;;54.55;;
7729;SDS011;3908;52.310;7.230;2023-07-13T09:05:51;66.10;;;62.30;;
7729;SDS011;3908;52.310;7.230;2023-07-13T09:08:43;85.40;;;80.80;;
7729;SDS011;3908;52.310;7.230;2023-07-13T09:11:36;52.90;;;49.67;;
7729;SDS011;3908;52.310;7.230;2023-07-13T09:14:34;47.53;;;44.45;;
7729;SDS011;3908;52.310;7.230;2023-07-13T09:17:23;91.78;;;86.78;;
7729;SDS011;3908;52.310;7.230;2023-07-13T09:20:14;144.30;;;135.18;;
7729;SDS011;3908;52.310;7.230;2023-07-13T09:23:05;99.32;;;92.40;;
7729;SDS011;3908;52.310;7.230;2023-07-13T09:25:54;38.22;;;34.88;;
7729;SDS011;3908;52.310;7.230;2023-07-13T09:28:44;53.35;;;49.88;;
7729;SDS011;3908;52.310;7.230;2023-07-13T09:31:32;52.33;;;48.80;;
7729;SDS011;3908;52.310;7.230;2023-07-13T09:34:20;47.53;;;44.40;;
7729;SDS011;3908;52.310;7.230;2023-07-13T09:37:07;75.90;;;70.57;;
7729;SDS011;3908;52.310;7.230;2023-07-13T09:39:53;48.92;;;45.45;;
7729;SDS011;3908;52.310;7.230;2023-07-13T09:42:41;106.47;;;99.85;;
7729;SDS011;3908;52.310;7.230;2023-07-13T09:45:30;259.63;;;245.38;;
7729;SDS011;3908;52.310;7.230;2023-07-13T09:48:17;219.27;;;207.38;;
7729;SDS011;3908;52.310;7.230;2023-07-13T09:51:07;57.20;;;53.75;;
7729;SDS011;3908;52.310;7.230;2023-07-13T09:53:57;51.75;;;48.40;;
7729;SDS011;3908;52.310;7.230;2023-07-13T09:56:44;99.53;;;93.18;;
7729;SDS011;3908;52.310;7.230;2023-07-13T09:59:35;178.45;;;167.38;;
7729;SDS011;3908;52.310;7.230;2023-07-13T10:02:24;88.07;;;82.30;;
7729;SDS011;3908;52.310;7.230;2023-07-13T10:05:11;273.52;;;257.85;;
7729;SDS011;3908;52.310;7.230;2023-07-13T10:08:00;234.57;;;221.60;;
7729;SDS011;3908;52.310;7.230;2023-07-13T10:10:47;217.50;;;205.52;;
7729;SDS011;3908;52.310;7.230;2023-07-13T10:13:40;261.58;;;247.02;;
7729;SDS011;3908;52.310;7.230;2023-07-13T10:16:28;264.17;;;249.48;;
7729;SDS011;3908;52.310;7.230;2023-07-13T10:19:21;283.02;;;266.98;;
7729;SDS011;3908;52.310;7.230;2023-07-13T10:22:12;219.73;;;206.68;;
7729;SDS011;3908;52.310;7.230;2023-07-13T10:25:01;188.13;;;177.15;;
7729;SDS011;3908;52.310;7.230;2023-07-13T10:27:47;185.98;;;176.13;;
7729;SDS011;3908;52.310;7.230;2023-07-13T10:30:38;204.90;;;193.55;;
7729;SDS011;3908;52.310;7.230;2023-07-13T10:33:27;118.50;;;112.60;;
7729;SDS011;3908;52.310;7.230;2023-07-13T10:36:16;256.05;;;242.23;;
7729;SDS011;3908;52.310;7.230;2023-07-13T10:39:04;245.63;;;232.35;;
7729;SDS011;3908;52.310;7.230;2023-07-13T10:41:53;185.15;;;175.40;;
7729;SDS011;3908;52.310;7.230;2023-07-13T10:44:40;188.90;;;178.93;;
7729;SDS011;3908;52.310;7.230;2023-07-13T10:47:27;161.90;;;153.35;;
7729;SDS011;3908;52.310;7.230;2023-07-13T10:50:15;153.13;;;144.98;;
7729;SDS011;3908;52.310;7.230;2023-07-13T10:53:16;168.68;;;159.90;;
7729;SDS011;3908;52.310;7.230;2023-07-13T10:56:06;230.45;;;218.65;;
7729;SDS011;3908;52.310;7.230;2023-07-13T10:59:01;207.43;;;196.60;;
7729;SDS011;3908;52.310;7.230;2023-07-13T11:01:50;194.93;;;184.05;;
7729;SDS011;3908;52.310;7.230;2023-07-13T11:04:41;209.23;;;197.95;;
7729;SDS011;3908;52.310;7.230;2023-07-13T11:07:29;181.25;;;170.48;;
7729;SDS011;3908;52.310;7.230;2023-07-13T11:16:36;199.38;;;188.68;;
7729;SDS011;3908;52.310;7.230;2023-07-13T11:22:23;282.77;;;267.02;;
7729;SDS011;3908;52.310;7.230;2023-07-13T11:25:26;300.70;;;283.35;;
7729;SDS011;3908;52.310;7.230;2023-07-13T11:28:18;173.90;;;164.52;;
7729;SDS011;3908;52.310;7.230;2023-07-13T11:31:14;172.57;;;162.50;;
7729;SDS011;3908;52.310;7.230;2023-07-13T11:34:06;169.23;;;160.32;;
7729;SDS011;3908;52.310;7.230;2023-07-13T11:36:57;155.43;;;146.50;;
7729;SDS011;3908;52.310;7.230;2023-07-13T11:39:44;125.93;;;119.07;;
7729;SDS011;3908;52.310;7.230;2023-07-13T11:42:32;163.80;;;156.00;;
7729;SDS011;3908;52.310;7.230;2023-07-13T11:45:19;162.95;;;155.32;;
7729;SDS011;3908;52.310;7.230;2023-07-13T11:48:18;139.05;;;132.48;;
7729;SDS011;3908;52.310;7.230;2023-07-13T11:51:10;182.57;;;173.88;;
7729;SDS011;3908;52.310;7.230;2023-07-13T11:54:01;253.43;;;241.10;;
7729;SDS011;3908;52.310;7.230;2023-07-13T11:56:49;248.40;;;236.60;;
7729;SDS011;3908;52.310;7.230;2023-07-13T11:59:36;268.48;;;255.70;;
7729;SDS011;3908;52.310;7.230;2023-07-13T12:02:27;116.85;;;110.63;;
7729;SDS011;3908;52.310;7.230;2023-07-13T12:05:16;150.70;;;143.07;;
7729;SDS011;3908;52.310;7.230;2023-07-13T12:08:09;203.75;;;193.75;;
7729;SDS011;3908;52.310;7.230;2023-07-13T12:11:02;257.70;;;243.88;;
7729;SDS011;3908;52.310;7.230;2023-07-13T12:13:51;226.23;;;213.50;;
7729;SDS011;3908;52.310;7.230;2023-07-13T12:16:37;204.77;;;193.07;;
7729;SDS011;3908;52.310;7.230;2023-07-13T12:19:25;129.68;;;122.55;;
7729;SDS011;3908;52.310;7.230;2023-07-13T12:22:13;197.85;;;186.65;;
7729;SDS011;3908;52.310;7.230;2023-07-13T12:25:02;131.80;;;124.65;;
7729;SDS011;3908;52.310;7.230;2023-07-13T12:27:50;125.95;;;119.13;;
7729;SDS011;3908;52.310;7.230;2023-07-13T12:30:37;140.32;;;133.38;;
7729;SDS011;3908;52.310;7.230;2023-07-13T12:33:24;163.73;;;155.88;;
7729;SDS011;3908;52.310;7.230;2023-07-13T12:36:13;177.15;;;168.60;;
7729;SDS011;3908;52.310;7.230;2023-07-13T12:39:00;233.00;;;221.60;;
7729;SDS011;3908;52.310;7.230;2023-07-13T12:41:51;199.43;;;189.95;;
7729;SDS011;3908;52.310;7.230;2023-07-13T12:44:40;181.48;;;172.88;;
7729;SDS011;3908;52.310;7.230;2023-07-13T12:47:27;107.47;;;102.53;;
7729;SDS011;3908;52.310;7.230;2023-07-13T12:50:15;111.05;;;105.88;;
7729;SDS011;3908;52.310;7.230;2023-07-13T12:53:03;82.43;;;78.55;;
7729;SDS011;3908;52.310;7.230;2023-07-13T12:55:52;87.25;;;83.10;;
7729;SDS011;3908;52.310;7.230;2023-07-13T12:58:41;72.28;;;68.93;;
7729;SDS011;3908;52.310;7.230;2023-07-13T13:01:30;105.80;;;101.03;;
7729;SDS011;3908;52.310;7.230;2023-07-13T13:04:18;84.85;;;81.05;;
7729;SDS011;3908;52.310;7.230;2023-07-13T13:07:08;79.45;;;75.90;;
7729;SDS011;3908;52.310;7.230;2023-07-13T13:09:55;95.13;;;90.47;;
7729;SDS011;3908;52.310;7.230;2023-07-13T13:12:43;105.35;;;100.43;;
7729;SDS011;3908;52.310;7.230;2023-07-13T13:15:31;160.73;;;153.15;;
7729;SDS011;3908;52.310;7.230;2023-07-13T13:18:18;239.50;;;228.50;;
7729;SDS011;3908;52.310;7.230;2023-07-13T13:21:06;191.55;;;182.88;;
7729;SDS011;3908;52.310;7.230;2023-07-13T13:23:54;216.43;;;206.25;;
7729;SDS011;3908;52.310;7.230;2023-07-13T13:26:41;233.15;;;222.23;;
7729;SDS011;3908;52.310;7.230;2023-07-13T13:29:28;201.70;;;192.45;;
7729;SDS011;3908;52.310;7.230;2023-07-13T13:32:16;177.30;;;169.20;;
7729;SDS011;3908;52.310;7.230;2023-07-13T13:35:03;60.60;;;57.75;;
7729;SDS011;3908;52.310;7.230;2023-07-13T13:37:49;162.98;;;154.52;;
7729;SDS011;3908;52.310;7.230;2023-07-13T13:40:36;220.98;;;211.27;;
7729;SDS011;3908;52.310;7.230;2023-07-13T13:43:23;149.27;;;142.30;;
7729;SDS011;3908;52.310;7.230;2023-07-13T13:46:13;215.75;;;203.65;;
7729;SDS011;3908;52.310;7.230;2023-07-13T13:49:02;197.13;;;186.50;;
7729;SDS011;3908;52.310;7.230;2023-07-13T13:51:49;75.90;;;71.75;;
7729;SDS011;3908;52.310;7.230;2023-07-13T13:54:36;89.28;;;84.47;;
7729;SDS011;3908;52.310;7.230;2023-07-13T13:57:23;151.68;;;144.75;;
7729;SDS011;3908;52.310;7.230;2023-07-13T14:00:11;155.25;;;148.60;;
7729;SDS011;3908;52.310;7.230;2023-07-13T14:02:59;141.85;;;135.55;;
7729;SDS011;3908;52.310;7.230;2023-07-13T14:05:48;59.42;;;56.58;;
7729;SDS011;3908;52.310;7.230;2023-07-13T14:08:35;64.13;;;61.17;;
7729;SDS011;3908;52.310;7.230;2023-07-13T14:11:22;37.20;;;35.35;;
7729;SDS011;3908;52.310;7.230;2023-07-13T14:14:09;61.05;;;58.17;;
7729;SDS011;3908;52.310;7.230;2023-07-13T14:16:59;165.48;;;158.23;;
7729;SDS011;3908;52.310;7.230;2023-07-13T14:19:45;267.67;;;255.68;;
7729;SDS011;3908;52.310;7.230;2023-07-13T14:22:33;288.05;;;274.70;;
7729;SDS011;3908;52.310;7.230;2023-07-13T14:25:20;285.58;;;272.33;;
7729;SDS011;3908;52.310;7.230;2023-07-13T14:28:13;293.98;;;280.40;;
7729;SDS011;3908;52.310;7.230;2023-07-13T14:31:01;269.23;;;256.70;;
7729;SDS011;3908;52.310;7.230;2023-07-13T14:33:48;233.75;;;222.82;;
7729;SDS011;3908;52.310;7.230;2023-07-13T14:36:36;193.98;;;184.80;;
7729;SDS011;3908;52.310;7.230;2023-07-13T14:39:25;123.05;;;117.32;;
7729;SDS011;3908;52.310;7.230;2023-07-13T14:42:13;95.38;;;91.30;;
7729;SDS011;3908;52.310;7.230;2023-07-13T14:45:00;77.55;;;74.00;;
7729;SDS011;3908;52.310;7.230;2023-07-13T14:47:46;92.20;;;87.95;;
7729;SDS011;3908;52.310;7.230;2023-07-13T14:50:33;117.55;;;111.95;;
7729;SDS011;3908;52.310;7.230;2023-07-13T14:53:21;91.22;;;86.93;;
7729;SDS011;3908;52.310;7.230;2023-07-13T14:56:11;100.13;;;95.47;;
7729;SDS011;3908;52.310;7.230;2023-07-13T14:58:58;102.38;;;97.70;;
7729;SDS011;3908;52.310;7.230;2023-07-13T15:01:45;176.20;;;167.63;;
7729;SDS011;3908;52.310;7.230;2023-07-13T15:04:32;214.07;;;204.10;;
7729;SDS011;3908;52.310;7.230;2023-07-13T15:07:19;242.43;;;231.02;;
7729;SDS011;3908;52.310;7.230;2023-07-13T15:10:12;232.15;;;221.25;;
7729;SDS011;3908;52.310;7.230;2023-07-13T15:13:04;233.95;;;223.13;;
7729;SDS011;3908;52.310;7.230;2023-07-13T15:15:59;155.88;;;148.63;;
7729;SDS011;3908;52.310;7.230;2023-07-13T15:18:46;207.30;;;197.85;;
7729;SDS011;3908;52.310;7.230;2023-07-13T15:21:33;185.98;;;177.40;;
7729;SDS011;3908;52.310;7.230;2023-07-13T15:24:22;227.00;;;216.48;;
7729;SDS011;3908;52.310;7.230;2023-07-13T15:27:10;250.75;;;239.02;;
7729;SDS011;3908;52.310;7.230;2023-07-13T15:29:58;242.52;;;231.20;;
7729;SDS011;3908;52.310;7.230;2023-07-13T15:32:45;213.48;;;203.73;;
7729;SDS011;3908;52.310;7.230;2023-07-13T15:35:33;224.73;;;213.88;;
7729;SDS011;3908;52.310;7.230;2023-07-13T15:38:20;236.02;;;224.52;;
7729;SDS011;3908;52.310;7.230;2023-07-13T15:41:09;245.43;;;233.57;;
7729;SDS011;3908;52.310;7.230;2023-07-13T15:43:59;218.60;;;208.45;;
7729;SDS011;3908;52.310;7.230;2023-07-13T15:46:48;199.80;;;190.52;;
7729;SDS011;3908;52.310;7.230;2023-07-13T15:49:35;154.98;;;147.27;;
7729;SDS011;3908;52.310;7.230;2023-07-13T15:52:22;207.27;;;196.98;;
7729;SDS011;3908;52.310;7.230;2023-07-13T15:55:10;250.60;;;238.52;;
7729;SDS011;3908;52.310;7.230;2023-07-13T15:57:58;241.52;;;229.98;;
7729;SDS011;3908;52.310;7.230;2023-07-13T16:00:46;230.85;;;219.63;;
7729;SDS011;3908;52.310;7.230;2023-07-13T16:03:37;219.98;;;209.43;;
7729;SDS011;3908;52.310;7.230;2023-07-13T16:06:25;248.02;;;236.27;;
7729;SDS011;3908;52.310;7.230;2023-07-13T16:09:16;258.17;;;246.10;;
7729;SDS011;3908;52.310;7.230;2023-07-13T16:12:06;246.98;;;235.55;;
7729;SDS011;3908;52.310;7.230;2023-07-13T16:14:55;256.73;;;244.45;;
7729;SDS011;3908;52.310;7.230;2023-07-13T16:17:42;245.27;;;233.55;;
7729;SDS011;3908;52.310;7.230;2023-07-13T16:20:30;247.35;;;235.10;;
7729;SDS011;3908;52.310;7.230;2023-07-13T16:23:17;204.02;;;194.15;;
7729;SDS011;3908;52.310;7.230;2023-07-13T16:26:08;171.82;;;163.40;;
7729;SDS011;3908;52.310;7.230;2023-07-13T16:29:02;145.30;;;138.32;;
7729;SDS011;3908;52.310;7.230;2023-07-13T16:31:56;170.27;;;161.65;;
7729;SDS011;3908;52.310;7.230;2023-07-13T16:34:43;154.05;;;146.60;;
7729;SDS011;3908;52.310;7.230;2023-07-13T16:37:31;179.55;;;170.48;;
7729;SDS011;3908;52.310;7.230;2023-07-13T16:40:20;173.77;;;165.63;;